sensor_id;sensor_type;location;lat;lon;timestamp;pressure;altitude;pressure_sealevel;temperature;humidity
5062;BME280;2351;50.812;12.872;2023-01-19T00:01:52;96649.16;;;-6.25;100.00
5062;BME280;2351;50.812;12.872;2023-01-19T00:04:23;96645.19;;;-6.32;100.00
5062;BME280;2351;50.812;12.872;2023-01-19T00:06:55;96645.41;;;-6.39;100.00
5062;BME280;2351;50.812;12.872;2023-01-19T00:09:27;96645.63;;;-6.45;100.00
5062;BME280;2351;50.812;12.872;2023-01-19T00:12:02;96643.31;;;-6.51;100.00
5062;BME280;2351;50.812;12.872;2023-01-19T00:14:34;96649.53;;;-6.57;100.00
5062;BME280;2351;50.812;12.872;2023-01-19T00:17:07;96646.31;;;-6.62;100.00
5062;BME280;2351;50.812;12.872;2023-01-19T00:19:39;96648.25;;;-6.69;100.00
5062;BME280;2351;50.812;12.872;2023-01-19T00:22:11;96654.97;;;-6.88;100.00
5062;BME280;2351;50.812;12.872;2023-01-19T00:24:42;96664.84;;;-7.00;100.00
5062;BME280;2351;50.812;12.872;2023-01-19T00:27:15;96660.06;;;-7.11;100.00
5062;BME280;2351;50.812;12.872;2023-01-19T00:29:47;96668.91;;;-7.18;100.00
5062;BME280;2351;50.812;12.872;2023-01-19T00:32:20;96670.78;;;-7.23;100.00
5062;BME280;2351;50.812;12.872;2023-01-19T00:34:51;96671.84;;;-7.29;100.00
5062;BME280;2351;50.812;12.872;2023-01-19T00:37:23;96685.69;;;-7.33;100.00
5062;BME280;2351;50.812;12.872;2023-01-19T00:39:55;96679.75;;;-7.35;100.00
5062;BME280;2351;50.812;12.872;2023-01-19T00:42:26;96681.69;;;-7.40;100.00
5062;BME280;2351;50.812;12.872;2023-01-19T00:45:22;96681.00;;;-7.45;100.00
5062;BME280;2351;50.812;12.872;2023-01-19T00:47:56;96685.44;;;-7.50;100.00
5062;BME280;2351;50.812;12.872;2023-01-19T00:50:29;96688.22;;;-7.57;100.00
5062;BME280;2351;50.812;12.872;2023-01-19T00:53:01;96695.19;;;-7.60;100.00
5062;BME280;2351;50.812;12.872;2023-01-19T00:55:32;96691.94;;;-7.65;100.00
5062;BME280;2351;50.812;12.872;2023-01-19T00:58:04;96691.25;;;-7.71;100.00
5062;BME280;2351;50.812;12.872;2023-01-19T01:00:36;96697.44;;;-7.76;100.00
5062;BME280;2351;50.812;12.872;2023-01-19T01:03:10;96693.22;;;-7.79;100.00
5062;BME280;2351;50.812;12.872;2023-01-19T01:05:41;96694.16;;;-7.81;100.00
5062;BME280;2351;50.812;12.872;2023-01-19T01:08:13;96689.03;;;-7.81;100.00
5062;BME280;2351;50.812;12.872;2023-01-19T01:10:45;96684.84;;;-7.84;100.00
5062;BME280;2351;50.812;12.872;2023-01-19T01:13:17;96688.38;;;-7.88;100.00
5062;BME280;2351;50.812;12.872;2023-01-19T01:15:49;96687.66;;;-7.92;100.00
5062;BME280;2351;50.812;12.872;2023-01-19T01:18:23;96692.88;;;-7.95;100.00
5062;BME280;2351;50.812;12.872;2023-01-19T01:21:00;96695.56;;;-7.98;100.00
5062;BME280;2351;50.812;12.872;2023-01-19T01:23:32;96694.66;;;-7.97;100.00
5062;BME280;2351;50.812;12.872;2023-01-19T01:26:04;96693.84;;;-7.97;100.00
5062;BME280;2351;50.812;12.872;2023-01-19T01:28:36;96702.47;;;-8.00;100.00
5062;BME280;2351;50.812;12.872;2023-01-19T01:31:07;96694.06;;;-8.05;100.00
5062;BME280;2351;50.812;12.872;2023-01-19T01:33:41;96698.53;;;-8.10;100.00
5062;BME280;2351;50.812;12.872;2023-01-19T01:36:12;96699.44;;;-8.13;100.00
5062;BME280;2351;50.812;12.872;2023-01-19T01:38:44;96696.94;;;-8.14;100.00
5062;BME280;2351;50.812;12.872;2023-01-19T01:41:16;96704.63;;;-8.14;100.00
5062;BME280;2351;50.812;12.872;2023-01-19T01:43:49;96708.88;;;-8.13;100.00
5062;BME280;2351;50.812;12.872;2023-01-19T01:46:23;96708.00;;;-8.12;100.00
5062;BME280;2351;50.812;12.872;2023-01-19T01:49:03;96712.16;;;-8.08;100.00
5062;BME280;2351;50.812;12.872;2023-01-19T01:51:38;96712.88;;;-8.05;100.00
5062;BME280;2351;50.812;12.872;2023-01-19T01:54:16;96716.19;;;-8.01;100.00
5062;BME280;2351;50.812;12.872;2023-01-19T01:56:51;96717.00;;;-7.99;100.00
5062;BME280;2351;50.812;12.872;2023-01-19T01:59:25;96715.22;;;-7.97;100.00
5062;BME280;2351;50.812;12.872;2023-01-19T02:02:02;96710.72;;;-7.90;100.00
5062;BME280;2351;50.812;12.872;2023-01-19T02:04:58;96713.09;;;-7.84;100.00
5062;BME280;2351;50.812;12.872;2023-01-19T02:07:41;96725.00;;;-7.81;100.00
5062;BME280;2351;50.812;12.872;2023-01-19T02:10:33;96732.75;;;-7.83;100.00
5062;BME280;2351;50.812;12.872;2023-01-19T02:13:23;96727.78;;;-7.88;100.00
5062;BME280;2351;50.812;12.872;2023-01-19T02:15:57;96738.19;;;-7.92;100.00
5062;BME280;2351;50.812;12.872;2023-01-19T02:18:31;96729.00;;;-7.99;100.00
5062;BME280;2351;50.812;12.872;2023-01-19T02:21:10;96730.78;;;-8.02;100.00
5062;BME280;2351;50.812;12.872;2023-01-19T02:23:45;96729.88;;;-8.00;100.00
5062;BME280;2351;50.812;12.872;2023-01-19T02:26:20;96740.06;;;-7.97;100.00
5062;BME280;2351;50.812;12.872;2023-01-19T02:28:55;96733.16;;;-7.95;100.00
5062;BME280;2351;50.812;12.872;2023-01-19T02:31:29;96743.38;;;-7.94;100.00
5062;BME280;2351;50.812;12.872;2023-01-19T02:34:02;96744.13;;;-7.90;100.00
5062;BME280;2351;50.812;12.872;2023-01-19T02:36:37;96743.09;;;-7.84;100.00
5062;BME280;2351;50.812;12.872;2023-01-19T02:39:14;96736.06;;;-7.79;100.00
5062;BME280;2351;50.812;12.872;2023-01-19T02:41:51;96737.75;;;-7.78;100.00
5062;BME280;2351;50.812;12.872;2023-01-19T02:44:24;96742.16;;;-7.82;100.00
5062;BME280;2351;50.812;12.872;2023-01-19T02:46:57;96738.84;;;-7.85;100.00
5062;BME280;2351;50.812;12.872;2023-01-19T02:49:29;96739.75;;;-7.87;100.00
5062;BME280;2351;50.812;12.872;2023-01-19T02:52:01;96743.78;;;-7.79;100.00
5062;BME280;2351;50.812;12.872;2023-01-19T02:54:43;96741.16;;;-7.78;100.00
5062;BME280;2351;50.812;12.872;2023-01-19T02:57:27;96744.53;;;-7.76;100.00
5062;BME280;2351;50.812;12.872;2023-01-19T03:00:14;96741.91;;;-7.74;100.00
5062;BME280;2351;50.812;12.872;2023-01-19T03:03:00;96743.59;;;-7.73;100.00
5062;BME280;2351;50.812;12.872;2023-01-19T03:05:49;96747.66;;;-7.66;100.00
5062;BME280;2351;50.812;12.872;2023-01-19T03:08:31;96747.59;;;-7.64;100.00
5062;BME280;2351;50.812;12.872;2023-01-19T03:11:10;96753.59;;;-7.64;100.00
5062;BME280;2351;50.812;12.872;2023-01-19T03:13:44;96750.84;;;-7.59;100.00
5062;BME280;2351;50.812;12.872;2023-01-19T03:16:20;96754.13;;;-7.54;100.00
5062;BME280;2351;50.812;12.872;2023-01-19T03:18:53;96759.16;;;-7.51;100.00
5062;BME280;2351;50.812;12.872;2023-01-19T03:21:27;96759.91;;;-7.47;100.00
5062;BME280;2351;50.812;12.872;2023-01-19T03:24:02;96747.59;;;-7.39;100.00
5062;BME280;2351;50.812;12.872;2023-01-19T03:26:39;96758.66;;;-7.35;100.00
5062;BME280;2351;50.812;12.872;2023-01-19T03:29:14;96761.13;;;-7.32;100.00
5062;BME280;2351;50.812;12.872;2023-01-19T03:31:49;96762.03;;;-7.35;100.00
5062;BME280;2351;50.812;12.872;2023-01-19T03:34:22;96765.56;;;-7.37;100.00
5062;BME280;2351;50.812;12.872;2023-01-19T03:36:56;96769.84;;;-7.38;100.00
5062;BME280;2351;50.812;12.872;2023-01-19T03:39:30;96771.66;;;-7.40;100.00
5062;BME280;2351;50.812;12.872;2023-01-19T03:42:05;96769.22;;;-7.45;100.00
5062;BME280;2351;50.812;12.872;2023-01-19T03:44:38;96778.94;;;-7.53;100.00
5062;BME280;2351;50.812;12.872;2023-01-19T03:47:12;96780.06;;;-7.62;100.00
5062;BME280;2351;50.812;12.872;2023-01-19T03:49:46;96775.91;;;-7.66;100.00
5062;BME280;2351;50.812;12.872;2023-01-19T03:52:26;96775.91;;;-7.66;100.00
5062;BME280;2351;50.812;12.872;2023-01-19T03:54:58;96771.66;;;-7.67;100.00
5062;BME280;2351;50.812;12.872;2023-01-19T03:57:32;96780.16;;;-7.65;100.00
5062;BME280;2351;50.812;12.872;2023-01-19T04:00:04;96770.56;;;-7.60;100.00
5062;BME280;2351;50.812;12.872;2023-01-19T04:02:36;96781.50;;;-7.53;100.00
5062;BME280;2351;50.812;12.872;2023-01-19T04:05:08;96771.97;;;-7.49;100.00
5062;BME280;2351;50.812;12.872;2023-01-19T04:07:40;96767.53;;;-7.46;100.00
5062;BME280;2351;50.812;12.872;2023-01-19T04:10:12;96776.13;;;-7.45;100.00
5062;BME280;2351;50.812;12.872;2023-01-19T04:12:46;96771.09;;;-7.50;100.00
5062;BME280;2351;50.812;12.872;2023-01-19T04:15:18;96771.16;;;-7.51;100.00
5062;BME280;2351;50.812;12.872;2023-01-19T04:17:50;96772.94;;;-7.53;100.00
5062;BME280;2351;50.812;12.872;2023-01-19T04:20:21;96772.16;;;-7.56;100.00
5062;BME280;2351;50.812;12.872;2023-01-19T04:22:53;96776.66;;;-7.62;100.00
5062;BME280;2351;50.812;12.872;2023-01-19T04:25:27;96778.34;;;-7.61;100.00
5062;BME280;2351;50.812;12.872;2023-01-19T04:28:00;96784.50;;;-7.67;100.00
5062;BME280;2351;50.812;12.872;2023-01-19T04:30:31;96776.00;;;-7.69;100.00
5062;BME280;2351;50.812;12.872;2023-01-19T04:33:03;96768.34;;;-7.71;100.00
5062;BME280;2351;50.812;12.872;2023-01-19T04:35:35;96774.41;;;-7.73;100.00
5062;BME280;2351;50.812;12.872;2023-01-19T04:38:07;96777.97;;;-7.77;100.00
5062;BME280;2351;50.812;12.872;2023-01-19T04:40:38;96768.63;;;-7.80;100.00
5062;BME280;2351;50.812;12.872;2023-01-19T04:43:11;96778.13;;;-7.82;100.00
5062;BME280;2351;50.812;12.872;2023-01-19T04:45:44;96778.06;;;-7.80;100.00
5062;BME280;2351;50.812;12.872;2023-01-19T04:48:17;96779.50;;;-7.72;100.00
5062;BME280;2351;50.812;12.872;2023-01-19T04:50:50;96785.31;;;-7.65;100.00
5062;BME280;2351;50.812;12.872;2023-01-19T04:53:23;96792.06;;;-7.62;100.00
5062;BME280;2351;50.812;12.872;2023-01-19T04:55:54;96784.31;;;-7.61;100.00
5062;BME280;2351;50.812;12.872;2023-01-19T04:58:27;96792.78;;;-7.57;100.00
5062;BME280;2351;50.812;12.872;2023-01-19T05:00:59;96791.88;;;-7.56;100.00
5062;BME280;2351;50.812;12.872;2023-01-19T05:03:31;96796.16;;;-7.57;100.00
5062;BME280;2351;50.812;12.872;2023-01-19T05:06:03;96793.69;;;-7.60;100.00
5062;BME280;2351;50.812;12.872;2023-01-19T05:08:35;96793.75;;;-7.61;100.00
5062;BME280;2351;50.812;12.872;2023-01-19T05:11:07;96799.84;;;-7.64;100.00
5062;BME280;2351;50.812;12.872;2023-01-19T05:13:40;96799.94;;;-7.67;100.00
5062;BME280;2351;50.812;12.872;2023-01-19T05:16:11;96798.34;;;-7.71;100.00
5062;BME280;2351;50.812;12.872;2023-01-19T05:18:43;96803.56;;;-7.74;100.00
5062;BME280;2351;50.812;12.872;2023-01-19T05:21:15;96800.13;;;-7.73;100.00
5062;BME280;2351;50.812;12.872;2023-01-19T05:23:46;96795.88;;;-7.74;100.00
5062;BME280;2351;50.812;12.872;2023-01-19T05:26:18;96793.19;;;-7.71;100.00
5062;BME280;2351;50.812;12.872;2023-01-19T05:28:51;96788.69;;;-7.63;100.00
5062;BME280;2351;50.812;12.872;2023-01-19T05:31:23;96785.97;;;-7.60;100.00
5062;BME280;2351;50.812;12.872;2023-01-19T05:33:55;96777.19;;;-7.52;100.00
5062;BME280;2351;50.812;12.872;2023-01-19T05:36:26;96785.50;;;-7.44;100.00
5062;BME280;2351;50.812;12.872;2023-01-19T05:38:58;96781.94;;;-7.40;100.00
5062;BME280;2351;50.812;12.872;2023-01-19T05:41:30;96780.94;;;-7.36;100.00
5062;BME280;2351;50.812;12.872;2023-01-19T05:44:03;96776.50;;;-7.31;100.00
5062;BME280;2351;50.812;12.872;2023-01-19T05:46:35;96771.09;;;-7.23;100.00
5062;BME280;2351;50.812;12.872;2023-01-19T05:49:06;96789.00;;;-7.20;100.00
5062;BME280;2351;50.812;12.872;2023-01-19T05:51:38;96788.09;;;-7.19;100.00
5062;BME280;2351;50.812;12.872;2023-01-19T05:54:14;96778.69;;;-7.20;100.00
5062;BME280;2351;50.812;12.872;2023-01-19T05:56:46;96789.94;;;-7.22;100.00
5062;BME280;2351;50.812;12.872;2023-01-19T05:59:19;96795.09;;;-7.22;100.00
5062;BME280;2351;50.812;12.872;2023-01-19T06:01:53;96793.50;;;-7.27;100.00
5062;BME280;2351;50.812;12.872;2023-01-19T06:04:25;96791.97;;;-7.32;100.00
5062;BME280;2351;50.812;12.872;2023-01-19T06:06:56;96796.44;;;-7.37;100.00
5062;BME280;2351;50.812;12.872;2023-01-19T06:09:28;96799.94;;;-7.40;100.00
5062;BME280;2351;50.812;12.872;2023-01-19T06:12:00;96805.13;;;-7.42;100.00
5062;BME280;2351;50.812;12.872;2023-01-19T06:14:33;96807.66;;;-7.40;100.00
5062;BME280;2351;50.812;12.872;2023-01-19T06:17:06;96805.03;;;-7.38;100.00
5062;BME280;2351;50.812;12.872;2023-01-19T06:19:38;96803.97;;;-7.33;100.00
5062;BME280;2351;50.812;12.872;2023-01-19T06:22:09;96805.50;;;-7.27;100.00
5062;BME280;2351;50.812;12.872;2023-01-19T06:24:41;96805.38;;;-7.22;100.00
5062;BME280;2351;50.812;12.872;2023-01-19T06:27:13;96801.13;;;-7.23;100.00
5062;BME280;2351;50.812;12.872;2023-01-19T06:29:46;96803.78;;;-7.27;100.00
5062;BME280;2351;50.812;12.872;2023-01-19T06:32:18;96815.03;;;-7.29;100.00
5062;BME280;2351;50.812;12.872;2023-01-19T06:34:50;96821.06;;;-7.30;100.00
5062;BME280;2351;50.812;12.872;2023-01-19T06:37:22;96817.63;;;-7.31;100.00
5062;BME280;2351;50.812;12.872;2023-01-19T06:39:56;96816.81;;;-7.31;100.00
5062;BME280;2351;50.812;12.872;2023-01-19T06:42:27;96818.53;;;-7.32;100.00
5062;BME280;2351;50.812;12.872;2023-01-19T06:45:00;96817.69;;;-7.32;100.00
5062;BME280;2351;50.812;12.872;2023-01-19T06:47:32;96818.50;;;-7.30;100.00
5062;BME280;2351;50.812;12.872;2023-01-19T06:50:04;96820.19;;;-7.29;100.00
5062;BME280;2351;50.812;12.872;2023-01-19T06:52:36;96821.16;;;-7.33;100.00
5062;BME280;2351;50.812;12.872;2023-01-19T06:55:11;96830.66;;;-7.35;100.00
5062;BME280;2351;50.812;12.872;2023-01-19T06:57:44;96831.63;;;-7.39;100.00
5062;BME280;2351;50.812;12.872;2023-01-19T07:00:18;96828.31;;;-7.43;100.00
5062;BME280;2351;50.812;12.872;2023-01-19T07:02:50;96835.97;;;-7.42;100.00
5062;BME280;2351;50.812;12.872;2023-01-19T07:05:22;96835.16;;;-7.42;100.00
5062;BME280;2351;50.812;12.872;2023-01-19T07:07:55;96832.69;;;-7.45;100.00
5062;BME280;2351;50.812;12.872;2023-01-19T07:10:27;96837.84;;;-7.47;100.00
5062;BME280;2351;50.812;12.872;2023-01-19T07:12:58;96835.28;;;-7.47;100.00
5062;BME280;2351;50.812;12.872;2023-01-19T07:15:31;96834.34;;;-7.44;100.00
5062;BME280;2351;50.812;12.872;2023-01-19T07:18:04;96843.66;;;-7.40;100.00
5062;BME280;2351;50.812;12.872;2023-01-19T07:20:37;96839.34;;;-7.39;100.00
5062;BME280;2351;50.812;12.872;2023-01-19T07:23:09;96852.84;;;-7.33;100.00
5062;BME280;2351;50.812;12.872;2023-01-19T07:25:44;96847.44;;;-7.25;100.00
5062;BME280;2351;50.812;12.872;2023-01-19T07:28:15;96851.56;;;-7.19;100.00
5062;BME280;2351;50.812;12.872;2023-01-19T07:30:51;96852.22;;;-7.13;100.00
5062;BME280;2351;50.812;12.872;2023-01-19T07:33:23;96856.16;;;-7.02;100.00
5062;BME280;2351;50.812;12.872;2023-01-19T07:35:55;96860.84;;;-6.88;100.00
5062;BME280;2351;50.812;12.872;2023-01-19T07:38:27;96853.38;;;-6.71;100.00
5062;BME280;2351;50.812;12.872;2023-01-19T07:40:59;96862.22;;;-6.53;100.00
5062;BME280;2351;50.812;12.872;2023-01-19T07:43:31;96859.94;;;-6.37;100.00
5062;BME280;2351;50.812;12.872;2023-01-19T07:46:05;96868.69;;;-6.17;100.00
5062;BME280;2351;50.812;12.872;2023-01-19T07:48:37;96857.56;;;-5.95;100.00
5062;BME280;2351;50.812;12.872;2023-01-19T07:51:09;96856.88;;;-5.77;100.00
5062;BME280;2351;50.812;12.872;2023-01-19T07:53:41;96865.59;;;-5.57;100.00
5062;BME280;2351;50.812;12.872;2023-01-19T07:56:13;96868.88;;;-5.31;100.00
5062;BME280;2351;50.812;12.872;2023-01-19T07:58:44;96870.38;;;-5.03;100.00
5062;BME280;2351;50.812;12.872;2023-01-19T08:01:18;96875.44;;;-4.79;100.00
5062;BME280;2351;50.812;12.872;2023-01-19T08:03:49;96871.19;;;-4.60;100.00
5062;BME280;2351;50.812;12.872;2023-01-19T08:06:23;96874.72;;;-4.21;100.00
5062;BME280;2351;50.812;12.872;2023-01-19T08:08:55;96870.84;;;-3.36;100.00
5062;BME280;2351;50.812;12.872;2023-01-19T08:11:26;96868.81;;;-2.39;100.00
5062;BME280;2351;50.812;12.872;2023-01-19T08:13:58;96864.69;;;-1.76;100.00
5062;BME280;2351;50.812;12.872;2023-01-19T08:16:33;96857.28;;;-1.04;100.00
5062;BME280;2351;50.812;12.872;2023-01-19T08:19:04;96863.84;;;-1.13;100.00
5062;BME280;2351;50.812;12.872;2023-01-19T08:21:36;96868.88;;;-1.26;100.00
5062;BME280;2351;50.812;12.872;2023-01-19T08:24:16;96871.53;;;-1.75;100.00
5062;BME280;2351;50.812;12.872;2023-01-19T08:26:49;96883.13;;;-2.32;100.00
5062;BME280;2351;50.812;12.872;2023-01-19T08:29:20;96882.31;;;-2.50;100.00
5062;BME280;2351;50.812;12.872;2023-01-19T08:31:54;96892.44;;;-2.81;100.00
5062;BME280;2351;50.812;12.872;2023-01-19T08:34:28;96888.16;;;-2.82;100.00
5062;BME280;2351;50.812;12.872;2023-01-19T08:37:01;96895.78;;;-2.79;100.00
5062;BME280;2351;50.812;12.872;2023-01-19T08:39:32;96894.00;;;-2.96;100.00
5062;BME280;2351;50.812;12.872;2023-01-19T08:42:04;96895.00;;;-2.98;100.00
5062;BME280;2351;50.812;12.872;2023-01-19T08:44:36;96895.47;;;-2.90;100.00
5062;BME280;2351;50.812;12.872;2023-01-19T08:47:09;96888.94;;;-2.80;100.00
5062;BME280;2351;50.812;12.872;2023-01-19T08:49:41;96891.19;;;-2.74;100.00
5062;BME280;2351;50.812;12.872;2023-01-19T08:52:12;96887.63;;;-2.71;100.00
5062;BME280;2351;50.812;12.872;2023-01-19T08:54:44;96898.09;;;-2.55;100.00
5062;BME280;2351;50.812;12.872;2023-01-19T08:57:16;96897.28;;;-2.22;100.00
5062;BME280;2351;50.812;12.872;2023-01-19T08:59:47;96901.72;;;-1.90;100.00
5062;BME280;2351;50.812;12.872;2023-01-19T09:02:20;96893.06;;;-1.73;100.00
5062;BME280;2351;50.812;12.872;2023-01-19T09:04:52;96896.66;;;-1.60;100.00
5062;BME280;2351;50.812;12.872;2023-01-19T09:07:24;96891.47;;;-1.44;100.00
5062;BME280;2351;50.812;12.872;2023-01-19T09:09:55;96894.47;;;-1.19;100.00
5062;BME280;2351;50.812;12.872;2023-01-19T09:12:27;96896.59;;;-1.10;100.00
5062;BME280;2351;50.812;12.872;2023-01-19T09:14:59;96896.16;;;-1.18;100.00
5062;BME280;2351;50.812;12.872;2023-01-19T09:17:32;96905.06;;;-1.23;100.00
5062;BME280;2351;50.812;12.872;2023-01-19T09:20:05;96904.03;;;-1.04;100.00
5062;BME280;2351;50.812;12.872;2023-01-19T09:22:36;96900.63;;;-0.74;100.00
5062;BME280;2351;50.812;12.872;2023-01-19T09:25:09;96894.72;;;-0.62;100.00
5062;BME280;2351;50.812;12.872;2023-01-19T09:27:40;96899.97;;;-0.47;100.00
5062;BME280;2351;50.812;12.872;2023-01-19T09:30:12;96898.53;;;-0.22;100.00
5062;BME280;2351;50.812;12.872;2023-01-19T09:32:45;96898.84;;;0.17;100.00
5062;BME280;2351;50.812;12.872;2023-01-19T09:35:17;96903.66;;;0.52;100.00
5062;BME280;2351;50.812;12.872;2023-01-19T09:37:49;96895.97;;;0.78;100.00
5062;BME280;2351;50.812;12.872;2023-01-19T09:40:21;96893.25;;;0.94;100.00
5062;BME280;2351;50.812;12.872;2023-01-19T09:42:55;96902.66;;;1.09;100.00
5062;BME280;2351;50.812;12.872;2023-01-19T09:45:33;96904.22;;;0.99;100.00
5062;BME280;2351;50.812;12.872;2023-01-19T09:48:24;96899.03;;;0.84;100.00
5062;BME280;2351;50.812;12.872;2023-01-19T09:50:59;96896.53;;;0.68;100.00
5062;BME280;2351;50.812;12.872;2023-01-19T09:53:41;96898.63;;;0.63;100.00
5062;BME280;2351;50.812;12.872;2023-01-19T09:56:16;96903.16;;;0.59;100.00
5062;BME280;2351;50.812;12.872;2023-01-19T09:58:50;96897.03;;;0.60;100.00
5062;BME280;2351;50.812;12.872;2023-01-19T10:01:32;96895.16;;;0.63;100.00
5062;BME280;2351;50.812;12.872;2023-01-19T10:04:28;96891.00;;;0.45;100.00
5062;BME280;2351;50.812;12.872;2023-01-19T10:07:16;96892.84;;;0.58;100.00
5062;BME280;2351;50.812;12.872;2023-01-19T10:10:08;96889.38;;;0.72;99.81
5062;BME280;2351;50.812;12.872;2023-01-19T10:12:54;96885.44;;;0.79;99.32
5062;BME280;2351;50.812;12.872;2023-01-19T10:15:38;96879.78;;;0.72;98.20
5062;BME280;2351;50.812;12.872;2023-01-19T10:18:16;96884.19;;;0.57;97.34
5062;BME280;2351;50.812;12.872;2023-01-19T10:20:54;96881.59;;;0.57;97.09
5062;BME280;2351;50.812;12.872;2023-01-19T10:23:35;96886.72;;;0.86;99.11
5062;BME280;2351;50.812;12.872;2023-01-19T10:26:13;96879.56;;;1.17;98.31
5062;BME280;2351;50.812;12.872;2023-01-19T10:28:47;96879.66;;;1.16;96.48
5062;BME280;2351;50.812;12.872;2023-01-19T10:31:22;96881.66;;;1.25;95.92
5062;BME280;2351;50.812;12.872;2023-01-19T10:33:53;96881.31;;;1.17;94.70
5062;BME280;2351;50.812;12.872;2023-01-19T10:36:30;96877.81;;;1.31;96.24
5062;BME280;2351;50.812;12.872;2023-01-19T10:39:04;96882.69;;;1.23;93.42
5062;BME280;2351;50.812;12.872;2023-01-19T10:41:40;96883.09;;;1.16;91.75
5062;BME280;2351;50.812;12.872;2023-01-19T10:44:21;96887.72;;;0.98;89.77
5062;BME280;2351;50.812;12.872;2023-01-19T10:46:54;96889.72;;;0.80;87.30
5062;BME280;2351;50.812;12.872;2023-01-19T10:49:29;96889.59;;;0.96;89.09
5062;BME280;2351;50.812;12.872;2023-01-19T10:52:18;96879.78;;;1.00;88.21
5062;BME280;2351;50.812;12.872;2023-01-19T10:54:52;96879.41;;;0.79;83.56
5062;BME280;2351;50.812;12.872;2023-01-19T10:57:27;96876.13;;;0.89;84.89
5062;BME280;2351;50.812;12.872;2023-01-19T11:00:02;96866.75;;;1.27;87.46
5062;BME280;2351;50.812;12.872;2023-01-19T11:02:34;96881.16;;;1.33;85.05
5062;BME280;2351;50.812;12.872;2023-01-19T11:05:22;96875.97;;;1.05;78.45
5062;BME280;2351;50.812;12.872;2023-01-19T11:07:56;96870.47;;;1.10;80.61
5062;BME280;2351;50.812;12.872;2023-01-19T11:10:28;96880.16;;;1.08;78.40
5062;BME280;2351;50.812;12.872;2023-01-19T11:13:02;96866.91;;;1.11;79.96
5062;BME280;2351;50.812;12.872;2023-01-19T11:15:41;96860.28;;;0.93;77.91
5062;BME280;2351;50.812;12.872;2023-01-19T11:18:23;96854.69;;;0.99;78.91
5062;BME280;2351;50.812;12.872;2023-01-19T11:21:00;96855.91;;;0.93;79.17
5062;BME280;2351;50.812;12.872;2023-01-19T11:23:35;96858.47;;;0.80;78.75
5062;BME280;2351;50.812;12.872;2023-01-19T11:26:14;96860.38;;;0.64;78.89
5062;BME280;2351;50.812;12.872;2023-01-19T11:28:47;96852.25;;;0.41;77.63
5062;BME280;2351;50.812;12.872;2023-01-19T11:31:30;96848.13;;;0.51;78.96
5062;BME280;2351;50.812;12.872;2023-01-19T11:34:04;96853.91;;;0.42;78.96
5062;BME280;2351;50.812;12.872;2023-01-19T11:36:36;96855.34;;;0.60;80.06
5062;BME280;2351;50.812;12.872;2023-01-19T11:39:21;96848.41;;;0.61;77.86
5062;BME280;2351;50.812;12.872;2023-01-19T11:41:54;96859.16;;;0.69;78.76
5062;BME280;2351;50.812;12.872;2023-01-19T11:44:29;96844.06;;;0.74;78.02
5062;BME280;2351;50.812;12.872;2023-01-19T11:47:03;96861.97;;;0.66;77.94
5062;BME280;2351;50.812;12.872;2023-01-19T11:49:39;96858.66;;;0.35;76.53
5062;BME280;2351;50.812;12.872;2023-01-19T11:52:20;96859.31;;;0.39;78.33
5062;BME280;2351;50.812;12.872;2023-01-19T11:55:02;96861.53;;;0.45;77.50
5062;BME280;2351;50.812;12.872;2023-01-19T11:57:45;96857.81;;;0.49;79.06
5062;BME280;2351;50.812;12.872;2023-01-19T12:00:25;96849.03;;;0.65;79.02
5062;BME280;2351;50.812;12.872;2023-01-19T12:03:02;96852.75;;;0.60;77.77
5062;BME280;2351;50.812;12.872;2023-01-19T12:05:39;96851.94;;;0.45;77.85
5062;BME280;2351;50.812;12.872;2023-01-19T12:08:15;96858.28;;;0.27;78.26
5062;BME280;2351;50.812;12.872;2023-01-19T12:10:52;96850.63;;;0.11;77.69
5062;BME280;2351;50.812;12.872;2023-01-19T12:13:26;96853.38;;;0.22;78.94
5062;BME280;2351;50.812;12.872;2023-01-19T12:16:03;96861.94;;;0.24;78.65
5062;BME280;2351;50.812;12.872;2023-01-19T12:18:39;96855.81;;;0.11;77.93
5062;BME280;2351;50.812;12.872;2023-01-19T12:21:13;96867.25;;;-0.06;77.50
5062;BME280;2351;50.812;12.872;2023-01-19T12:23:54;96869.84;;;-0.06;78.01
5062;BME280;2351;50.812;12.872;2023-01-19T12:26:35;96863.22;;;-0.41;79.21
5062;BME280;2351;50.812;12.872;2023-01-19T12:29:11;96869.22;;;-0.40;79.74
5062;BME280;2351;50.812;12.872;2023-01-19T12:31:44;96870.38;;;-0.44;80.26
5062;BME280;2351;50.812;12.872;2023-01-19T12:34:38;96874.88;;;-0.48;80.75
5062;BME280;2351;50.812;12.872;2023-01-19T12:37:30;96879.16;;;-0.47;81.50
5062;BME280;2351;50.812;12.872;2023-01-19T12:40:16;96883.88;;;-0.54;81.05
5062;BME280;2351;50.812;12.872;2023-01-19T12:42:58;96883.09;;;-0.40;81.19
5062;BME280;2351;50.812;12.872;2023-01-19T12:45:31;96880.31;;;-0.22;81.75
5062;BME280;2351;50.812;12.872;2023-01-19T12:48:04;96878.75;;;-0.25;81.21
5062;BME280;2351;50.812;12.872;2023-01-19T12:50:45;96871.94;;;-0.42;80.99
5062;BME280;2351;50.812;12.872;2023-01-19T12:53:19;96874.00;;;-0.18;81.33
5062;BME280;2351;50.812;12.872;2023-01-19T12:56:03;96868.72;;;0.12;83.31
5062;BME280;2351;50.812;12.872;2023-01-19T12:58:46;96872.34;;;-0.05;79.72
5062;BME280;2351;50.812;12.872;2023-01-19T13:01:19;96855.81;;;-0.18;80.58
5062;BME280;2351;50.812;12.872;2023-01-19T13:04:00;96863.56;;;-0.33;79.62
5062;BME280;2351;50.812;12.872;2023-01-19T13:07:05;96870.63;;;-0.49;80.01
5062;BME280;2351;50.812;12.872;2023-01-19T13:09:39;96864.50;;;-0.48;80.55
5062;BME280;2351;50.812;12.872;2023-01-19T13:12:21;96861.13;;;-0.50;80.57
5062;BME280;2351;50.812;12.872;2023-01-19T13:15:34;96863.84;;;-0.52;80.40
5062;BME280;2351;50.812;12.872;2023-01-19T13:18:07;96872.88;;;-0.43;80.29
5062;BME280;2351;50.812;12.872;2023-01-19T13:20:43;96870.53;;;-0.48;80.47
5062;BME280;2351;50.812;12.872;2023-01-19T13:23:23;96880.50;;;-0.25;79.06
5062;BME280;2351;50.812;12.872;2023-01-19T13:26:03;96877.31;;;-0.31;79.48
5062;BME280;2351;50.812;12.872;2023-01-19T13:28:39;96876.31;;;-0.28;79.05
5062;BME280;2351;50.812;12.872;2023-01-19T13:31:14;96861.06;;;-0.49;79.56
5062;BME280;2351;50.812;12.872;2023-01-19T13:33:49;96868.00;;;-0.49;79.45
5062;BME280;2351;50.812;12.872;2023-01-19T13:36:26;96874.81;;;-0.77;79.39
5062;BME280;2351;50.812;12.872;2023-01-19T13:39:01;96878.53;;;-0.81;80.01
5062;BME280;2351;50.812;12.872;2023-01-19T13:41:36;96869.22;;;-0.85;79.86
5062;BME280;2351;50.812;12.872;2023-01-19T13:44:13;96880.28;;;-0.98;79.95
5062;BME280;2351;50.812;12.872;2023-01-19T13:46:50;96888.09;;;-0.98;80.99